Map

Track Data

SID SEASON NUMBER BASIN SUBBASIN NAME ISO_TIME NATURE LAT LON WMO_WIND WMO_PRES WMO_AGENCY TRACK_TYPE DIST2LAND LANDFALL IFLAG USA_AGENCY USA_ATCF_ID USA_LAT USA_LON USA_RECORD USA_STATUS USA_WIND USA_PRES USA_SSHS USA_R34_NE USA_R34_SE USA_R34_SW USA_R34_NW USA_R50_NE USA_R50_SE USA_R50_SW USA_R50_NW USA_R64_NE USA_R64_SE USA_R64_SW USA_R64_NW USA_POCI USA_ROCI USA_RMW USA_EYE TOKYO_LAT TOKYO_LON TOKYO_GRADE TOKYO_WIND TOKYO_PRES TOKYO_R50_DIR TOKYO_R50_LONG TOKYO_R50_SHORT TOKYO_R30_DIR TOKYO_R30_LONG TOKYO_R30_SHORT TOKYO_LAND CMA_LAT CMA_LON CMA_CAT CMA_WIND CMA_PRES HKO_LAT HKO_LON HKO_CAT HKO_WIND HKO_PRES NEWDELHI_LAT NEWDELHI_LON NEWDELHI_GRADE NEWDELHI_WIND NEWDELHI_PRES NEWDELHI_CI NEWDELHI_DP NEWDELHI_POCI REUNION_LAT REUNION_LON REUNION_TYPE REUNION_WIND REUNION_PRES REUNION_TNUM REUNION_CI REUNION_RMW REUNION_R34_NE REUNION_R34_SE REUNION_R34_SW REUNION_R34_NW REUNION_R50_NE REUNION_R50_SE REUNION_R50_SW REUNION_R50_NW REUNION_R64_NE REUNION_R64_SE REUNION_R64_SW REUNION_R64_NW BOM_LAT BOM_LON BOM_TYPE BOM_WIND BOM_PRES BOM_TNUM BOM_CI BOM_RMW BOM_R34_NE BOM_R34_SE BOM_R34_SW BOM_R34_NW BOM_R50_NE BOM_R50_SE BOM_R50_SW BOM_R50_NW BOM_R64_NE BOM_R64_SE BOM_R64_SW BOM_R64_NW BOM_ROCI BOM_POCI BOM_EYE BOM_POS_METHOD BOM_PRES_METHOD NADI_LAT NADI_LON NADI_CAT NADI_WIND NADI_PRES WELLINGTON_LAT WELLINGTON_LON WELLINGTON_WIND WELLINGTON_PRES DS824_LAT DS824_LON DS824_STAGE DS824_WIND DS824_PRES TD9636_LAT TD9636_LON TD9636_STAGE TD9636_WIND TD9636_PRES TD9635_LAT TD9635_LON TD9635_WIND TD9635_PRES TD9635_ROCI NEUMANN_LAT NEUMANN_LON NEUMANN_CLASS NEUMANN_WIND NEUMANN_PRES MLC_LAT MLC_LON MLC_CLASS MLC_WIND MLC_PRES USA_GUST BOM_GUST BOM_GUST_PER REUNION_GUST REUNION_GUST_PER USA_SEAHGT USA_SEARAD_NE USA_SEARAD_SE USA_SEARAD_SW USA_SEARAD_NW STORM_SPEED STORM_DIR
1933195N15300 1933 24 NA CS NOT_NAMED 1933-07-14 00:00:00 TS 14.9000 -60.0000 30 hurdat_atl main 482 480 O_____________ hurdat_atl AL031933 14.9000 -60.0000 TD 30 -1 16 293
1933195N15300 1933 24 NA CS NOT_NAMED 1933-07-14 03:00:00 TS 15.2055 -60.7496 main 504 504 P_____________ AL031933 15.2055 -60.7496 TD 30 -1 16 293
1933195N15300 1933 24 NA CS NOT_NAMED 1933-07-14 06:00:00 TS 15.5000 -61.5000 30 hurdat_atl main 530 450 O_____________ hurdat_atl AL031933 15.5000 -61.5000 TD 30 -1 16 291
1933195N15300 1933 24 NA CS NOT_NAMED 1933-07-14 09:00:00 TS 15.7722 -62.2501 main 441 370 P_____________ AL031933 15.7722 -62.2501 TD 30 -1 15 289
1933195N15300 1933 24 NA CS NOT_NAMED 1933-07-14 12:00:00 TS 16.0000 -63.0000 30 hurdat_atl main 370 300 O_____________ hurdat_atl AL031933 16.0000 -63.0000 TD 30 -1 15 285
1933195N15300 1933 24 NA CS NOT_NAMED 1933-07-14 15:00:00 TS 16.1647 -63.7503 main 292 235 P_____________ AL031933 16.1647 -63.7503 TD 30 -1 15 282
1933195N15300 1933 24 NA CS NOT_NAMED 1933-07-14 18:00:00 TS 16.3000 -64.5000 30 hurdat_atl main 235 190 O_____________ hurdat_atl AL031933 16.3000 -64.5000 TD 30 -1 15 281
1933195N15300 1933 24 NA CS NOT_NAMED 1933-07-14 21:00:00 TS 16.4573 -65.2575 main 176 147 P_____________ AL031933 16.4573 -65.2575 TD 30 -1 15 282
1933195N15300 1933 24 NA CS NOT_NAMED 1933-07-15 00:00:00 TS 16.6000 -66.0000 30 hurdat_atl main 147 134 O_____________ hurdat_atl AL031933 16.6000 -66.0000 TD 30 -1 14 280
1933195N15300 1933 24 NA CS NOT_NAMED 1933-07-15 03:00:00 TS 16.7072 -66.7077 main 135 123 P_____________ AL031933 16.7072 -66.7077 TD 30 -1 14 278
1933195N15300 1933 24 NA CS NOT_NAMED 1933-07-15 06:00:00 TS 16.8000 -67.4000 30 hurdat_atl main 124 124 O_____________ hurdat_atl AL031933 16.8000 -67.4000 TD 30 -1 13 278
1933195N15300 1933 24 NA CS NOT_NAMED 1933-07-15 09:00:00 TS 16.8995 -68.0776 main 147 134 P_____________ AL031933 16.8995 -68.0776 TD 30 -1 14 278
1933195N15300 1933 24 NA CS NOT_NAMED 1933-07-15 12:00:00 TS 17.0000 -68.8000 30 hurdat_atl main 134 130 O_____________ hurdat_atl AL031933 17.0000 -68.8000 TD 30 -1 15 278
1933195N15300 1933 24 NA CS NOT_NAMED 1933-07-15 15:00:00 TS 17.0998 -69.6201 main 138 111 P_____________ AL031933 17.0998 -69.6201 TD 30 -1 16 277
1933195N15300 1933 24 NA CS NOT_NAMED 1933-07-15 18:00:00 TS 17.2000 -70.5000 30 hurdat_atl main 105 33 O_____________ hurdat_atl AL031933 17.2000 -70.5000 TD 30 -1 17 277
1933195N15300 1933 24 NA CS NOT_NAMED 1933-07-15 21:00:00 TS 17.3074 -71.4075 main 33 33 P_____________ AL031933 17.3074 -71.4075 TD 32 -1 17 277
1933195N15300 1933 24 NA CS NOT_NAMED 1933-07-16 00:00:00 TS 17.4000 -72.3000 35 hurdat_atl main 86 70 O_____________ hurdat_atl AL031933 17.4000 -72.3000 TS 35 0 16 275
1933195N15300 1933 24 NA CS NOT_NAMED 1933-07-16 03:00:00 TS 17.4570 -73.1152 main 74 55 P_____________ AL031933 17.4570 -73.1152 TS 35 0 15 274
1933195N15300 1933 24 NA CS NOT_NAMED 1933-07-16 06:00:00 TS 17.5000 -73.9000 35 hurdat_atl main 55 55 O_____________ hurdat_atl AL031933 17.5000 -73.9000 TS 35 0 15 273
1933195N15300 1933 24 NA CS NOT_NAMED 1933-07-16 09:00:00 TS 17.5498 -74.7075 main 94 81 P_____________ AL031933 17.5498 -74.7075 TS 35 0 15 274
1933195N15300 1933 24 NA CS NOT_NAMED 1933-07-16 12:00:00 TS 17.6000 -75.5000 35 hurdat_atl main 81 33 O_____________ hurdat_atl AL031933 17.6000 -75.5000 TS 35 0 15 274
1933195N15300 1933 24 NA CS NOT_NAMED 1933-07-16 15:00:00 TS 17.6496 -76.2575 main 33 11 P_____________ AL031933 17.6496 -76.2575 TS 35 0 14 274
1933195N15300 1933 24 NA CS NOT_NAMED 1933-07-16 18:00:00 TS 17.7000 -77.0000 35 hurdat_atl main 11 0 O_____________ hurdat_atl AL031933 17.7000 -77.0000 TS 35 0 14 274
1933195N15300 1933 24 NA CS NOT_NAMED 1933-07-16 21:00:00 TS 17.7497 -77.7500 main 24 15 P_____________ AL031933 17.7497 -77.7500 TS 35 0 14 274
1933195N15300 1933 24 NA CS NOT_NAMED 1933-07-17 00:00:00 TS 17.8000 -78.5000 35 hurdat_atl main 45 45 O_____________ hurdat_atl AL031933 17.8000 -78.5000 TS 35 0 14 274
1933195N15300 1933 24 NA CS NOT_NAMED 1933-07-17 03:00:00 TS 17.8497 -79.2500 main 105 100 P_____________ AL031933 17.8497 -79.2500 TS 37 0 14 274
1933195N15300 1933 24 NA CS NOT_NAMED 1933-07-17 06:00:00 TS 17.9000 -80.0000 40 hurdat_atl main 172 172 O_____________ hurdat_atl AL031933 17.9000 -80.0000 TS 40 0 14 275
1933195N15300 1933 24 NA CS NOT_NAMED 1933-07-17 09:00:00 TS 17.9647 -80.7499 main 244 244 P_____________ AL031933 17.9647 -80.7499 TS 40 0 14 274
1933195N15300 1933 24 NA CS NOT_NAMED 1933-07-17 12:00:00 TS 18.0000 -81.5000 40 hurdat_atl main 328 328 O_____________ hurdat_atl AL031933 18.0000 -81.5000 TS 40 0 14 270
1933195N15300 1933 24 NA CS NOT_NAMED 1933-07-17 15:00:00 TS 17.9722 -82.2501 main 323 272 P_____________ AL031933 17.9722 -82.2501 TS 40 0 14 266
1933195N15300 1933 24 NA CS NOT_NAMED 1933-07-17 18:00:00 TS 17.9000 -83.0000 40 hurdat_atl main 272 232 O_____________ hurdat_atl AL031933 17.9000 -83.0000 TS 40 0 14 263
1933195N15300 1933 24 NA CS NOT_NAMED 1933-07-17 21:00:00 TS 17.8072 -83.7500 main 230 202 P_____________ AL031933 17.8072 -83.7500 TS 42 0 14 262
1933195N15300 1933 24 NA CS NOT_NAMED 1933-07-18 00:00:00 TS 17.7000 -84.5000 45 hurdat_atl main 202 190 O_____________ hurdat_atl AL031933 17.7000 -84.5000 TS 45 0 14 262
1933195N15300 1933 24 NA CS NOT_NAMED 1933-07-18 03:00:00 TS 17.5997 -85.2499 main 190 179 P_____________ AL031933 17.5997 -85.2499 TS 45 0 14 262
1933195N15300 1933 24 NA CS NOT_NAMED 1933-07-18 06:00:00 TS 17.5000 -86.0000 45 hurdat_atl main 179 146 O_____________ hurdat_atl AL031933 17.5000 -86.0000 TS 45 0 15 261
1933195N15300 1933 24 NA CS NOT_NAMED 1933-07-18 09:00:00 TS 17.3700 -86.7728 main 138 77 P_____________ AL031933 17.3700 -86.7728 TS 45 0 14 262
1933195N15300 1933 24 NA CS NOT_NAMED 1933-07-18 12:00:00 TS 17.3000 -87.5000 45 hurdat_atl main 77 15 O_____________ hurdat_atl AL031933 17.3000 -87.5000 TS 45 0 13 270
1933195N15300 1933 24 NA CS NOT_NAMED 1933-07-18 15:00:00 TS 17.3698 -88.1447 main 15 0 P_____________ AL031933 17.3698 -88.1447 TS 42 0 12 280
1933195N15300 1933 24 NA NA NOT_NAMED 1933-07-18 18:00:00 TS 17.5000 -88.7000 40 hurdat_atl main 0 0 O_____________ hurdat_atl AL031933 17.5000 -88.7000 TS 40 0 10 283
1933195N15300 1933 24 NA NA NOT_NAMED 1933-07-18 21:00:00 TS 17.5998 -89.1875 main 0 0 P_____________ AL031933 17.5998 -89.1875 TS 37 0 9 283
1933195N15300 1933 24 NA NA NOT_NAMED 1933-07-19 00:00:00 TS 17.7000 -89.6000 35 hurdat_atl main 0 0 O_____________ hurdat_atl AL031933 17.7000 -89.6000 TS 35 0 8 286
1933195N15300 1933 24 NA NA NOT_NAMED 1933-07-19 03:00:00 TS 17.8074 -89.9650 main 0 0 P_____________ AL031933 17.8074 -89.9650 TS 32 -1 7 287
1933195N15300 1933 24 NA NA NOT_NAMED 1933-07-19 06:00:00 TS 17.9000 -90.3000 30 hurdat_atl main 0 0 O_____________ hurdat_atl AL031933 17.9000 -90.3000 TD 30 -1 7 280
1933195N15300 1933 24 NA NA NOT_NAMED 1933-07-19 09:00:00 TS 17.9200 -90.6578 main 0 0 P_____________ AL031933 17.9200 -90.6578 TD 27 -1 7 279
1933195N15300 1933 24 NA NA NOT_NAMED 1933-07-19 12:00:00 TS 18.0000 -91.0000 25 hurdat_atl main 0 0 O_____________ hurdat_atl AL031933 18.0000 -91.0000 TD 25 -1 7 297
1933195N15300 1933 24 NA NA NOT_NAMED 1933-07-19 15:00:00 TS 18.2400 -91.3224 main 0 0 P_____________ AL031933 18.2400 -91.3224 TD 25 -1 8 317
1933195N15300 1933 24 NA GM NOT_NAMED 1933-07-19 18:00:00 TS 18.6000 -91.6000 25 hurdat_atl main 22 15 O_____________ hurdat_atl AL031933 18.6000 -91.6000 TD 25 -1 9 329
1933195N15300 1933 24 NA GM NOT_NAMED 1933-07-19 21:00:00 TS 19.0199 -91.8226 main 33 33 P_____________ AL031933 19.0199 -91.8226 TD 25 -1 10 337
1933195N15300 1933 24 NA GM NOT_NAMED 1933-07-20 00:00:00 TS 19.5000 -92.0000 25 hurdat_atl main 85 85 O_____________ hurdat_atl AL031933 19.5000 -92.0000 TD 25 -1 10 342
1933195N15300 1933 24 NA GM NOT_NAMED 1933-07-20 03:00:00 TS 19.9925 -92.1651 main 143 143 P_____________ AL031933 19.9925 -92.1651 TD 25 -1 10 344
1933195N15300 1933 24 NA GM NOT_NAMED 1933-07-20 06:00:00 TS 20.5000 -92.3000 25 hurdat_atl main 187 187 O_____________ hurdat_atl AL031933 20.5000 -92.3000 TD 25 -1 11 347
1933195N15300 1933 24 NA GM NOT_NAMED 1933-07-20 09:00:00 TS 21.0375 -92.4150 main 205 205 P_____________ AL031933 21.0375 -92.4150 TD 25 -1 10 349
1933195N15300 1933 24 NA GM NOT_NAMED 1933-07-20 12:00:00 TS 21.5000 -92.5000 25 hurdat_atl main 231 231 O_____________ hurdat_atl AL031933 21.5000 -92.5000 TD 25 -1 8 350
1933195N15300 1933 24 NA GM NOT_NAMED 1933-07-20 15:00:00 TS 21.8025 -92.5576 main 250 250 P_____________ AL031933 21.8025 -92.5576 TD 25 -1 5 349
1933195N15300 1933 24 NA GM NOT_NAMED 1933-07-20 18:00:00 TS 22.0000 -92.6000 25 hurdat_atl main 258 258 O_____________ hurdat_atl AL031933 22.0000 -92.6000 TD 25 -1 4 346
1933195N15300 1933 24 NA GM NOT_NAMED 1933-07-20 21:00:00 TS 22.1650 -92.6500 main 276 276 P_____________ AL031933 22.1650 -92.6500 TD 27 -1 3 344
1933195N15300 1933 24 NA GM NOT_NAMED 1933-07-21 00:00:00 TS 22.3000 -92.7000 30 hurdat_atl main 281 281 O_____________ hurdat_atl AL031933 22.3000 -92.7000 TD 30 -1 3 343
1933195N15300 1933 24 NA GM NOT_NAMED 1933-07-21 03:00:00 TS 22.4500 -92.7425 main 287 287 P_____________ AL031933 22.4500 -92.7425 TD 30 -1 3 344
1933195N15300 1933 24 NA GM NOT_NAMED 1933-07-21 06:00:00 TS 22.6000 -92.8000 30 hurdat_atl main 307 307 O_____________ hurdat_atl AL031933 22.6000 -92.8000 TD 30 -1 3 336
1933195N15300 1933 24 NA GM NOT_NAMED 1933-07-21 09:00:00 TS 22.7425 -92.8776 main 322 322 P_____________ AL031933 22.7425 -92.8776 TD 30 -1 4 329
1933195N15300 1933 24 NA GM NOT_NAMED 1933-07-21 12:00:00 TS 22.9000 -93.0000 30 hurdat_atl main 343 343 O_____________ hurdat_atl AL031933 22.9000 -93.0000 TD 30 -1 4 321
1933195N15300 1933 24 NA GM NOT_NAMED 1933-07-21 15:00:00 TS 23.0850 -93.1776 main 373 373 P_____________ AL031933 23.0850 -93.1776 TD 32 -1 5 317
1933195N15300 1933 24 NA GM NOT_NAMED 1933-07-21 18:00:00 TS 23.3000 -93.4000 35 hurdat_atl main 402 402 O_____________ hurdat_atl AL031933 23.3000 -93.4000 TS 35 0 6 316
1933195N15300 1933 24 NA GM NOT_NAMED 1933-07-21 21:00:00 TS 23.5275 -93.6352 main 428 386 P_____________ AL031933 23.5275 -93.6352 TS 35 0 7 317
1933195N15300 1933 24 NA GM NOT_NAMED 1933-07-22 00:00:00 TS 23.8000 -93.9000 35 hurdat_atl main 386 344 O_____________ hurdat_atl AL031933 23.8000 -93.9000 TS 35 0 8 319
1933195N15300 1933 24 NA GM NOT_NAMED 1933-07-22 03:00:00 TS 24.1200 -94.2001 main 344 298 P_____________ AL031933 24.1200 -94.2001 TS 35 0 9 322
1933195N15300 1933 24 NA GM NOT_NAMED 1933-07-22 06:00:00 TS 24.5000 -94.5000 35 hurdat_atl main 298 253 O_____________ hurdat_atl AL031933 24.5000 -94.5000 TS 35 0 10 327
1933195N15300 1933 24 NA GM NOT_NAMED 1933-07-22 09:00:00 TS 24.9275 -94.7799 main 253 220 P_____________ AL031933 24.9275 -94.7799 TS 37 0 10 333
1933195N15300 1933 24 NA GM NOT_NAMED 1933-07-22 12:00:00 TS 25.4000 -95.0000 40 hurdat_atl main 220 200 O_____________ hurdat_atl AL031933 25.4000 -95.0000 TS 40 0 10 342
1933195N15300 1933 24 NA GM NOT_NAMED 1933-07-22 15:00:00 TS 25.8924 -95.1154 main 200 189 P_____________ AL031933 25.8924 -95.1154 TS 40 0 10 350
1933195N15300 1933 24 NA GM NOT_NAMED 1933-07-22 18:00:00 TS 26.4000 -95.2000 40 hurdat_atl main 194 191 O_____________ hurdat_atl AL031933 26.4000 -95.2000 TS 40 0 10 349
1933195N15300 1933 24 NA GM NOT_NAMED 1933-07-22 21:00:00 TS 26.9000 -95.3351 main 199 140 P_____________ AL031933 26.9000 -95.3351 TS 40 0 10 345
1933195N15300 1933 24 NA GM NOT_NAMED 1933-07-23 00:00:00 TS 27.4000 -95.5000 40 hurdat_atl main 140 82 O_____________ hurdat_atl AL031933 27.4000 -95.5000 TS 40 0 11 343
1933195N15300 1933 24 NA GM NOT_NAMED 1933-07-23 03:00:00 TS 27.9466 -95.7050 main 82 24 P_____________ AL031933 27.9466 -95.7050 TS 40 0 11 340
1933195N15300 1933 24 NA GM NOT_NAMED 1933-07-23 06:00:00 TS 28.4000 -95.9000 40 hurdat_atl main 24 0 O_____________ hurdat_atl AL031933 28.4000 -95.9000 TS 40 0 8 338
1933195N15300 1933 24 NA GM NOT_NAMED 1933-07-23 08:00:00 TS 28.6000 -96.0000 40 hurdat_atl main 0 0 O_____________ hurdat_atl AL031933 28.6000 -96.0000 L TS 40 0 7 339
1933195N15300 1933 24 NA NA NOT_NAMED 1933-07-23 09:00:00 TS 28.7476 -96.0553 main 0 0 P_____________ AL031933 28.7476 -96.0553 TS 37 0 11 346
1933195N15300 1933 24 NA NA NOT_NAMED 1933-07-23 12:00:00 TS 29.3000 -96.2000 30 hurdat_atl main 0 0 O_____________ hurdat_atl AL031933 29.3000 -96.2000 TD 30 -1 10 351
1933195N15300 1933 24 NA NA NOT_NAMED 1933-07-23 15:00:00 TS 29.7636 -96.2417 main 0 0 P_____________ AL031933 29.7636 -96.2417 TD 30 -1 9 0
1933195N15300 1933 24 NA NA NOT_NAMED 1933-07-23 18:00:00 TS 30.2000 -96.2000 30 hurdat_atl main 0 0 O_____________ hurdat_atl AL031933 30.2000 -96.2000 TD 30 -1 9 6
1933195N15300 1933 24 NA NA NOT_NAMED 1933-07-23 21:00:00 TS 30.6650 -96.1300 main 0 0 P_____________ AL031933 30.6650 -96.1300 TD 27 -1 9 11
1933195N15300 1933 24 NA NA NOT_NAMED 1933-07-24 00:00:00 TS 31.1000 -96.0000 25 hurdat_atl main 0 0 O_____________ hurdat_atl AL031933 31.1000 -96.0000 TD 25 -1 9 18
1933195N15300 1933 24 NA NA NOT_NAMED 1933-07-24 03:00:00 TS 31.4725 -95.8150 main 0 0 P_____________ AL031933 31.4725 -95.8150 TD 25 -1 8 26
1933195N15300 1933 24 NA NA NOT_NAMED 1933-07-24 06:00:00 ET 31.8000 -95.6000 25 hurdat_atl main 0 0 O_____________ hurdat_atl AL031933 31.8000 -95.6000 EX 25 -4 8 27
1933195N15300 1933 24 NA NA NOT_NAMED 1933-07-24 09:00:00 ET 32.1449 -95.4075 main 0 0 P_____________ AL031933 32.1449 -95.4075 EX 25 -4 7 29
1933195N15300 1933 24 NA NA NOT_NAMED 1933-07-24 12:00:00 ET 32.4000 -95.2000 25 hurdat_atl main 0 0 O_____________ hurdat_atl AL031933 32.4000 -95.2000 EX 25 -4 5 47
1933195N15300 1933 24 NA NA NOT_NAMED 1933-07-24 15:00:00 ET 32.4950 -94.9573 main 0 0 P_____________ AL031933 32.4950 -94.9573 EX 25 -4 4 77
1933195N15300 1933 24 NA NA NOT_NAMED 1933-07-24 18:00:00 ET 32.5000 -94.7000 25 hurdat_atl main 0 0 O_____________ hurdat_atl AL031933 32.5000 -94.7000 EX 25 -4 4 87
1933195N15300 1933 24 NA NA NOT_NAMED 1933-07-24 21:00:00 ET 32.5149 -94.4575 main 0 0 P_____________ AL031933 32.5149 -94.4575 EX 25 -4 4 90
1933195N15300 1933 24 NA NA NOT_NAMED 1933-07-25 00:00:00 ET 32.5000 -94.2000 25 hurdat_atl main 0 0 O_____________ hurdat_atl AL031933 32.5000 -94.2000 EX 25 -4 5 97
1933195N15300 1933 24 NA NA NOT_NAMED 1933-07-25 03:00:00 ET 32.4575 -93.9075 main 0 0 P_____________ AL031933 32.4575 -93.9075 EX 25 -4 5 101
1933195N15300 1933 24 NA NA NOT_NAMED 1933-07-25 06:00:00 ET 32.4000 -93.6000 25 hurdat_atl main 0 0 O_____________ hurdat_atl AL031933 32.4000 -93.6000 EX 25 -4 5 101
1933195N15300 1933 24 NA NA NOT_NAMED 1933-07-25 09:00:00 ET 32.3576 -93.2775 main 0 0 P_____________ AL031933 32.3576 -93.2775 EX 25 -4 5 101
1933195N15300 1933 24 NA NA NOT_NAMED 1933-07-25 12:00:00 ET 32.3000 -93.0000 25 hurdat_atl main 0 0 O_____________ hurdat_atl AL031933 32.3000 -93.0000 EX 25 -4 4 113
1933195N15300 1933 24 NA NA NOT_NAMED 1933-07-25 15:00:00 ET 32.1999 -92.8275 main 0 0 P_____________ AL031933 32.1999 -92.8275 EX 25 -4 3 128
1933195N15300 1933 24 NA NA NOT_NAMED 1933-07-25 18:00:00 ET 32.1000 -92.7000 25 hurdat_atl main 0 0 O_____________ hurdat_atl AL031933 32.1000 -92.7000 EX 25 -4 3 124
1933195N15300 1933 24 NA NA NOT_NAMED 1933-07-25 21:00:00 ET 32.0425 -92.5501 main 0 0 P_____________ AL031933 32.0425 -92.5501 EX 25 -4 3 112
1933195N15300 1933 24 NA NA NOT_NAMED 1933-07-26 00:00:00 ET 32.0000 -92.4000 25 hurdat_atl main 0 0 O_____________ hurdat_atl AL031933 32.0000 -92.4000 EX 25 -4 3 112
1933195N15300 1933 24 NA NA NOT_NAMED 1933-07-26 03:00:00 ET 31.9425 -92.2500 main 0 0 P_____________ AL031933 31.9425 -92.2500 EX 27 -4 3 112
1933195N15300 1933 24 NA NA NOT_NAMED 1933-07-26 06:00:00 ET 31.9000 -92.1000 30 hurdat_atl main 0 0 O_____________ hurdat_atl AL031933 31.9000 -92.1000 EX 30 -4 3 108
1933195N15300 1933 24 NA NA NOT_NAMED 1933-07-26 09:00:00 ET 31.8625 -91.9499 main 0 0 P_____________ AL031933 31.8625 -91.9499 EX 30 -4 3 90
1933195N15300 1933 24 NA NA NOT_NAMED 1933-07-26 12:00:00 ET 31.9000 -91.8000 30 hurdat_atl main 0 0 O_____________ hurdat_atl AL031933 31.9000 -91.8000 EX 30 -4 3 55
1933195N15300 1933 24 NA NA NOT_NAMED 1933-07-26 15:00:00 ET 32.0400 -91.6499 main 0 0 P_____________ AL031933 32.0400 -91.6499 EX 30 -4 5 32
1933195N15300 1933 24 NA NA NOT_NAMED 1933-07-26 18:00:00 ET 32.3000 -91.5000 30 hurdat_atl main 0 0 O_____________ hurdat_atl AL031933 32.3000 -91.5000 EX 30 -4 7 22
1933195N15300 1933 24 NA NA NOT_NAMED 1933-07-26 21:00:00 ET 32.6550 -91.3499 main 0 0 P_____________ AL031933 32.6550 -91.3499 EX 30 -4 8 18
1933195N15300 1933 24 NA NA NOT_NAMED 1933-07-27 00:00:00 ET 33.1000 -91.2000 30 hurdat_atl main 0 0 O_____________ hurdat_atl AL031933 33.1000 -91.2000 EX 30 -4 10 15
1933195N15300 1933 24 NA NA NOT_NAMED 1933-07-27 03:00:00 ET 33.5900 -91.0503 main 0 0 P_____________ AL031933 33.5900 -91.0503 EX 30 -4 10 14
1933195N15300 1933 24 NA NA NOT_NAMED 1933-07-27 06:00:00 ET 34.1000 -90.9000 30 hurdat_atl main 0 O_____________ hurdat_atl AL031933 34.1000 -90.9000 EX 30 -4 11 14

About IBTrACS Database

This database is a web-friendly format of International Best Track Archive for Climate Stewardship (IBTrACS), a global best track data archive curated by NOAA dating back to 1842.

Updated: 2021-10-08